sensor_id;sensor_type;location;lat;lon;timestamp;pressure;altitude;pressure_sealevel;temperature;humidity
82245;BME280;71849;50.096;14.458;2023-07-30T00:01:47;98980.44;;;19.28;69.18
82245;BME280;71849;50.096;14.458;2023-07-30T00:04:12;98973.88;;;19.24;69.41
82245;BME280;71849;50.096;14.458;2023-07-30T00:06:38;98965.41;;;19.21;69.28
82245;BME280;71849;50.096;14.458;2023-07-30T00:09:03;98974.28;;;19.18;69.79
82245;BME280;71849;50.096;14.458;2023-07-30T00:11:30;98966.97;;;19.08;70.05
82245;BME280;71849;50.096;14.458;2023-07-30T00:13:55;98966.81;;;18.99;70.38
82245;BME280;71849;50.096;14.458;2023-07-30T00:16:21;98972.47;;;18.89;71.16
82245;BME280;71849;50.096;14.458;2023-07-30T00:18:46;98970.00;;;18.88;71.45
82245;BME280;71849;50.096;14.458;2023-07-30T00:21:12;98966.22;;;18.84;71.40
82245;BME280;71849;50.096;14.458;2023-07-30T00:23:38;98972.31;;;18.81;71.60
82245;BME280;71849;50.096;14.458;2023-07-30T00:26:03;98973.19;;;18.76;71.83
82245;BME280;71849;50.096;14.458;2023-07-30T00:28:28;98986.75;;;18.73;71.88
82245;BME280;71849;50.096;14.458;2023-07-30T00:30:54;98976.50;;;18.78;71.76
82245;BME280;71849;50.096;14.458;2023-07-30T00:33:19;98974.31;;;18.75;71.76
82245;BME280;71849;50.096;14.458;2023-07-30T00:35:45;98961.94;;;18.73;71.89
82245;BME280;71849;50.096;14.458;2023-07-30T00:38:10;98968.25;;;18.73;72.11
82245;BME280;71849;50.096;14.458;2023-07-30T00:40:41;98962.38;;;18.80;71.74
82245;BME280;71849;50.096;14.458;2023-07-30T00:43:07;98951.09;;;18.81;71.89
82245;BME280;71849;50.096;14.458;2023-07-30T00:45:33;98960.16;;;18.82;71.82
82245;BME280;71849;50.096;14.458;2023-07-30T00:47:59;98955.47;;;18.82;72.36
82245;BME280;71849;50.096;14.458;2023-07-30T00:50:25;98957.19;;;18.78;72.10
82245;BME280;71849;50.096;14.458;2023-07-30T00:52:50;98966.06;;;18.75;72.35
82245;BME280;71849;50.096;14.458;2023-07-30T00:55:16;98959.72;;;18.75;72.39
82245;BME280;71849;50.096;14.458;2023-07-30T00:57:42;98970.50;;;18.71;72.34
82245;BME280;71849;50.096;14.458;2023-07-30T01:00:08;98956.13;;;18.74;72.24
82245;BME280;71849;50.096;14.458;2023-07-30T01:02:36;98961.06;;;18.77;72.25
82245;BME280;71849;50.096;14.458;2023-07-30T01:05:01;98957.19;;;18.78;72.16
82245;BME280;71849;50.096;14.458;2023-07-30T01:07:29;98958.53;;;18.81;72.13
82245;BME280;71849;50.096;14.458;2023-07-30T01:09:55;98956.66;;;18.76;72.46
82245;BME280;71849;50.096;14.458;2023-07-30T01:12:21;98956.50;;;18.68;72.93
82245;BME280;71849;50.096;14.458;2023-07-30T01:14:47;98959.38;;;18.58;73.23
82245;BME280;71849;50.096;14.458;2023-07-30T01:17:13;98964.66;;;18.54;73.72
82245;BME280;71849;50.096;14.458;2023-07-30T01:19:39;98950.38;;;18.47;73.78
82245;BME280;71849;50.096;14.458;2023-07-30T01:22:04;98954.31;;;18.41;74.24
82245;BME280;71849;50.096;14.458;2023-07-30T01:24:30;98958.41;;;18.43;74.27
82245;BME280;71849;50.096;14.458;2023-07-30T01:26:59;98962.00;;;18.44;74.26
82245;BME280;71849;50.096;14.458;2023-07-30T01:29:45;98971.69;;;18.41;74.72
82245;BME280;71849;50.096;14.458;2023-07-30T01:32:14;98965.81;;;18.48;74.49
82245;BME280;71849;50.096;14.458;2023-07-30T01:34:41;98960.59;;;18.46;74.24
82245;BME280;71849;50.096;14.458;2023-07-30T01:37:11;98968.03;;;18.46;74.30
82245;BME280;71849;50.096;14.458;2023-07-30T01:39:39;98960.06;;;18.44;74.48
82245;BME280;71849;50.096;14.458;2023-07-30T01:42:05;98975.47;;;18.45;74.57
82245;BME280;71849;50.096;14.458;2023-07-30T01:44:31;98973.31;;;18.42;74.51
82245;BME280;71849;50.096;14.458;2023-07-30T01:46:56;98978.22;;;18.45;74.59
82245;BME280;71849;50.096;14.458;2023-07-30T01:49:22;98974.13;;;18.43;74.97
82245;BME280;71849;50.096;14.458;2023-07-30T01:51:48;98971.38;;;18.43;74.71
82245;BME280;71849;50.096;14.458;2023-07-30T01:54:13;98979.34;;;18.44;74.72
82245;BME280;71849;50.096;14.458;2023-07-30T01:56:39;98983.16;;;18.48;74.61
82245;BME280;71849;50.096;14.458;2023-07-30T01:59:04;98982.13;;;18.44;75.26
82245;BME280;71849;50.096;14.458;2023-07-30T02:01:30;98987.63;;;18.44;75.00
82245;BME280;71849;50.096;14.458;2023-07-30T02:03:55;98985.69;;;18.45;74.89
82245;BME280;71849;50.096;14.458;2023-07-30T02:06:21;98985.50;;;18.36;75.42
82245;BME280;71849;50.096;14.458;2023-07-30T02:08:47;98994.47;;;18.23;76.08
82245;BME280;71849;50.096;14.458;2023-07-30T02:11:12;98981.91;;;18.12;76.22
82245;BME280;71849;50.096;14.458;2023-07-30T02:13:37;98986.13;;;18.05;76.61
82245;BME280;71849;50.096;14.458;2023-07-30T02:16:03;98987.56;;;17.97;77.15
82245;BME280;71849;50.096;14.458;2023-07-30T02:18:28;98984.28;;;17.95;77.46
82245;BME280;71849;50.096;14.458;2023-07-30T02:20:54;98977.38;;;17.97;76.99
82245;BME280;71849;50.096;14.458;2023-07-30T02:23:19;98975.16;;;17.99;77.13
82245;BME280;71849;50.096;14.458;2023-07-30T02:25:44;98979.84;;;17.99;77.25
82245;BME280;71849;50.096;14.458;2023-07-30T02:28:10;98974.03;;;18.00;76.95
82245;BME280;71849;50.096;14.458;2023-07-30T02:30:35;98991.72;;;17.94;77.32
82245;BME280;71849;50.096;14.458;2023-07-30T02:33:01;98975.59;;;17.83;77.76
82245;BME280;71849;50.096;14.458;2023-07-30T02:35:27;98985.50;;;17.84;77.50
82245;BME280;71849;50.096;14.458;2023-07-30T02:37:52;98986.88;;;17.81;77.59
82245;BME280;71849;50.096;14.458;2023-07-30T02:40:17;98986.88;;;17.86;77.63
82245;BME280;71849;50.096;14.458;2023-07-30T02:42:43;98988.47;;;17.87;77.26
82245;BME280;71849;50.096;14.458;2023-07-30T02:45:09;98985.97;;;17.91;77.26
82245;BME280;71849;50.096;14.458;2023-07-30T02:47:34;98981.28;;;17.91;77.15
82245;BME280;71849;50.096;14.458;2023-07-30T02:50:02;98985.47;;;17.89;77.41
82245;BME280;71849;50.096;14.458;2023-07-30T02:52:28;98982.94;;;17.92;77.45
82245;BME280;71849;50.096;14.458;2023-07-30T02:54:53;98986.53;;;17.93;77.41
82245;BME280;71849;50.096;14.458;2023-07-30T02:57:19;98979.31;;;17.97;77.19
82245;BME280;71849;50.096;14.458;2023-07-30T02:59:44;98973.28;;;17.95;77.45
82245;BME280;71849;50.096;14.458;2023-07-30T03:02:10;98976.84;;;17.95;77.51
82245;BME280;71849;50.096;14.458;2023-07-30T03:04:36;98974.34;;;17.99;77.37
82245;BME280;71849;50.096;14.458;2023-07-30T03:07:02;98970.47;;;18.00;77.45
82245;BME280;71849;50.096;14.458;2023-07-30T03:09:27;98977.09;;;17.99;77.70
82245;BME280;71849;50.096;14.458;2023-07-30T03:11:53;98965.78;;;18.00;77.51
82245;BME280;71849;50.096;14.458;2023-07-30T03:14:19;98971.59;;;17.99;77.83
82245;BME280;71849;50.096;14.458;2023-07-30T03:16:46;98972.63;;;18.03;77.42
82245;BME280;71849;50.096;14.458;2023-07-30T03:19:12;98962.69;;;18.07;77.06
82245;BME280;71849;50.096;14.458;2023-07-30T03:21:37;98968.13;;;18.12;76.88
82245;BME280;71849;50.096;14.458;2023-07-30T03:24:03;98965.09;;;18.14;76.53
82245;BME280;71849;50.096;14.458;2023-07-30T03:26:28;98958.50;;;18.15;76.78
82245;BME280;71849;50.096;14.458;2023-07-30T03:28:54;98974.72;;;18.16;76.76
82245;BME280;71849;50.096;14.458;2023-07-30T03:31:19;98967.50;;;18.20;76.72
82245;BME280;71849;50.096;14.458;2023-07-30T03:33:45;98967.16;;;18.27;76.62
82245;BME280;71849;50.096;14.458;2023-07-30T03:36:11;98970.69;;;18.32;76.25
82245;BME280;71849;50.096;14.458;2023-07-30T03:38:39;98974.19;;;18.38;76.00
82245;BME280;71849;50.096;14.458;2023-07-30T03:41:05;98966.41;;;18.45;75.87
82245;BME280;71849;50.096;14.458;2023-07-30T03:43:31;98964.72;;;18.49;76.02
82245;BME280;71849;50.096;14.458;2023-07-30T03:45:56;98955.81;;;18.57;75.43
82245;BME280;71849;50.096;14.458;2023-07-30T03:48:22;98951.66;;;18.60;75.40
82245;BME280;71849;50.096;14.458;2023-07-30T03:50:47;98953.50;;;18.64;75.57
82245;BME280;71849;50.096;14.458;2023-07-30T03:53:12;98959.75;;;18.70;75.30
82245;BME280;71849;50.096;14.458;2023-07-30T03:55:38;98966.69;;;18.67;75.61
82245;BME280;71849;50.096;14.458;2023-07-30T03:58:04;98949.44;;;18.80;74.62
82245;BME280;71849;50.096;14.458;2023-07-30T04:00:29;98950.63;;;18.93;74.36
82245;BME280;71849;50.096;14.458;2023-07-30T04:02:54;98951.22;;;18.90;74.42
82245;BME280;71849;50.096;14.458;2023-07-30T04:05:20;98949.34;;;18.85;74.57
82245;BME280;71849;50.096;14.458;2023-07-30T04:07:45;98950.50;;;18.84;74.75
82245;BME280;71849;50.096;14.458;2023-07-30T04:10:11;98951.06;;;19.37;72.83
82245;BME280;71849;50.096;14.458;2023-07-30T04:12:36;98958.50;;;19.55;71.84
82245;BME280;71849;50.096;14.458;2023-07-30T04:15:01;98962.06;;;19.75;71.03
82245;BME280;71849;50.096;14.458;2023-07-30T04:17:27;98959.31;;;20.48;68.65
82245;BME280;71849;50.096;14.458;2023-07-30T04:19:52;98963.31;;;20.55;68.16
82245;BME280;71849;50.096;14.458;2023-07-30T04:22:18;98971.28;;;20.70;67.42
82245;BME280;71849;50.096;14.458;2023-07-30T04:24:43;98973.03;;;20.53;68.04
82245;BME280;71849;50.096;14.458;2023-07-30T04:27:08;98983.63;;;20.18;69.44
82245;BME280;71849;50.096;14.458;2023-07-30T04:29:34;98977.53;;;19.89;70.93
82245;BME280;71849;50.096;14.458;2023-07-30T04:31:59;98978.97;;;19.87;70.92
82245;BME280;71849;50.096;14.458;2023-07-30T04:34:25;98978.63;;;19.75;70.97
82245;BME280;71849;50.096;14.458;2023-07-30T04:36:51;98983.31;;;19.74;70.83
82245;BME280;71849;50.096;14.458;2023-07-30T04:39:16;98981.69;;;19.73;71.17
82245;BME280;71849;50.096;14.458;2023-07-30T04:41:41;98982.88;;;19.67;71.06
82245;BME280;71849;50.096;14.458;2023-07-30T04:44:07;98983.41;;;19.69;70.78
82245;BME280;71849;50.096;14.458;2023-07-30T04:46:32;98977.59;;;19.71;70.92
82245;BME280;71849;50.096;14.458;2023-07-30T04:48:58;98990.50;;;19.75;70.92
82245;BME280;71849;50.096;14.458;2023-07-30T04:51:24;98993.53;;;19.74;70.94
82245;BME280;71849;50.096;14.458;2023-07-30T04:53:49;98990.78;;;19.74;70.75
82245;BME280;71849;50.096;14.458;2023-07-30T04:56:14;98992.44;;;19.75;70.67
82245;BME280;71849;50.096;14.458;2023-07-30T04:58:40;98989.16;;;19.73;70.91
82245;BME280;71849;50.096;14.458;2023-07-30T05:01:06;98990.63;;;19.84;70.24
82245;BME280;71849;50.096;14.458;2023-07-30T05:03:31;98998.31;;;19.87;70.60
82245;BME280;71849;50.096;14.458;2023-07-30T05:05:57;98995.78;;;20.04;69.74
82245;BME280;71849;50.096;14.458;2023-07-30T05:08:22;99000.69;;;20.07;69.85
82245;BME280;71849;50.096;14.458;2023-07-30T05:10:47;99009.63;;;20.17;69.44
82245;BME280;71849;50.096;14.458;2023-07-30T05:13:13;99002.81;;;20.29;69.38
82245;BME280;71849;50.096;14.458;2023-07-30T05:15:38;99003.94;;;20.28;69.04
82245;BME280;71849;50.096;14.458;2023-07-30T05:18:04;99010.25;;;20.14;69.72
82245;BME280;71849;50.096;14.458;2023-07-30T05:20:29;99006.09;;;20.31;69.00
82245;BME280;71849;50.096;14.458;2023-07-30T05:22:55;99001.69;;;20.30;68.91
82245;BME280;71849;50.096;14.458;2023-07-30T05:25:20;98995.34;;;20.43;68.46
82245;BME280;71849;50.096;14.458;2023-07-30T05:27:45;99003.84;;;20.46;68.40
82245;BME280;71849;50.096;14.458;2023-07-30T05:30:11;98998.44;;;20.41;68.51
82245;BME280;71849;50.096;14.458;2023-07-30T05:32:36;98999.16;;;20.33;69.03
82245;BME280;71849;50.096;14.458;2023-07-30T05:35:03;98989.72;;;20.34;69.07
82245;BME280;71849;50.096;14.458;2023-07-30T05:37:29;98996.38;;;20.33;69.01
82245;BME280;71849;50.096;14.458;2023-07-30T05:39:54;98997.72;;;20.36;68.66
82245;BME280;71849;50.096;14.458;2023-07-30T05:42:20;99001.31;;;20.36;69.21
82245;BME280;71849;50.096;14.458;2023-07-30T05:44:45;99001.91;;;20.33;69.08
82245;BME280;71849;50.096;14.458;2023-07-30T05:47:11;98999.88;;;20.39;69.00
82245;BME280;71849;50.096;14.458;2023-07-30T05:49:36;99003.34;;;20.44;68.66
82245;BME280;71849;50.096;14.458;2023-07-30T05:52:02;99006.63;;;20.46;68.24
82245;BME280;71849;50.096;14.458;2023-07-30T05:54:27;99006.31;;;20.48;68.57
82245;BME280;71849;50.096;14.458;2023-07-30T05:56:53;99015.00;;;20.55;68.44
82245;BME280;71849;50.096;14.458;2023-07-30T05:59:21;99006.81;;;20.50;68.37
82245;BME280;71849;50.096;14.458;2023-07-30T06:01:46;99017.88;;;20.50;68.53
82245;BME280;71849;50.096;14.458;2023-07-30T06:04:12;99008.47;;;20.51;68.73
82245;BME280;71849;50.096;14.458;2023-07-30T06:06:37;99014.09;;;20.46;68.82
82245;BME280;71849;50.096;14.458;2023-07-30T06:09:03;99020.66;;;20.50;68.72
82245;BME280;71849;50.096;14.458;2023-07-30T06:11:28;99026.50;;;20.48;68.81
82245;BME280;71849;50.096;14.458;2023-07-30T06:13:54;99017.28;;;20.39;68.97
82245;BME280;71849;50.096;14.458;2023-07-30T06:16:19;99024.44;;;20.40;69.16
82245;BME280;71849;50.096;14.458;2023-07-30T06:18:49;99024.53;;;20.35;69.25
82245;BME280;71849;50.096;14.458;2023-07-30T06:21:14;99016.75;;;20.37;69.48
82245;BME280;71849;50.096;14.458;2023-07-30T06:23:42;99022.38;;;20.46;68.98
82245;BME280;71849;50.096;14.458;2023-07-30T06:26:07;99023.75;;;20.48;68.67
82245;BME280;71849;50.096;14.458;2023-07-30T06:28:33;99015.84;;;20.55;68.83
82245;BME280;71849;50.096;14.458;2023-07-30T06:31:02;99009.06;;;20.61;68.41
82245;BME280;71849;50.096;14.458;2023-07-30T06:33:27;99013.69;;;20.66;68.49
82245;BME280;71849;50.096;14.458;2023-07-30T06:35:52;99014.81;;;20.65;68.30
82245;BME280;71849;50.096;14.458;2023-07-30T06:38:18;99024.16;;;20.69;68.53
82245;BME280;71849;50.096;14.458;2023-07-30T06:40:43;99013.38;;;20.81;67.90
82245;BME280;71849;50.096;14.458;2023-07-30T06:43:09;99011.03;;;20.88;67.41
82245;BME280;71849;50.096;14.458;2023-07-30T06:45:34;99014.72;;;20.97;67.33
82245;BME280;71849;50.096;14.458;2023-07-30T06:48:00;99011.13;;;21.10;66.80
82245;BME280;71849;50.096;14.458;2023-07-30T06:50:25;99010.81;;;21.12;66.47
82245;BME280;71849;50.096;14.458;2023-07-30T06:52:50;99020.63;;;21.04;66.87
82245;BME280;71849;50.096;14.458;2023-07-30T06:55:16;99029.56;;;21.15;66.81
82245;BME280;71849;50.096;14.458;2023-07-30T06:57:53;99030.78;;;21.22;66.48
82245;BME280;71849;50.096;14.458;2023-07-30T07:00:19;99026.06;;;21.23;66.21
82245;BME280;71849;50.096;14.458;2023-07-30T07:02:50;99029.16;;;21.21;66.36
82245;BME280;71849;50.096;14.458;2023-07-30T07:05:15;99037.13;;;21.23;66.39
82245;BME280;71849;50.096;14.458;2023-07-30T07:07:41;99041.75;;;21.14;66.36
82245;BME280;71849;50.096;14.458;2023-07-30T07:10:06;99043.22;;;21.11;66.40
82245;BME280;71849;50.096;14.458;2023-07-30T07:12:39;99046.25;;;21.10;66.70
82245;BME280;71849;50.096;14.458;2023-07-30T07:15:05;99057.25;;;21.15;66.49
82245;BME280;71849;50.096;14.458;2023-07-30T07:17:30;99059.91;;;21.20;65.90
82245;BME280;71849;50.096;14.458;2023-07-30T07:19:57;99065.22;;;21.16;66.20
82245;BME280;71849;50.096;14.458;2023-07-30T07:22:22;99063.06;;;21.13;66.13
82245;BME280;71849;50.096;14.458;2023-07-30T07:24:48;99064.53;;;21.11;66.27
82245;BME280;71849;50.096;14.458;2023-07-30T07:27:14;99068.19;;;21.06;66.45
82245;BME280;71849;50.096;14.458;2023-07-30T07:29:41;99063.28;;;21.03;66.31
82245;BME280;71849;50.096;14.458;2023-07-30T07:32:07;99072.69;;;21.02;66.72
82245;BME280;71849;50.096;14.458;2023-07-30T07:34:32;99076.91;;;20.86;67.20
82245;BME280;71849;50.096;14.458;2023-07-30T07:36:57;99076.41;;;20.84;67.02
82245;BME280;71849;50.096;14.458;2023-07-30T07:39:23;99090.94;;;20.76;68.53
82245;BME280;71849;50.096;14.458;2023-07-30T07:41:48;99111.38;;;20.48;71.51
82245;BME280;71849;50.096;14.458;2023-07-30T07:44:16;99110.50;;;19.45;78.94
82245;BME280;71849;50.096;14.458;2023-07-30T07:46:42;99117.88;;;18.21;82.75
82245;BME280;71849;50.096;14.458;2023-07-30T07:49:20;99144.94;;;17.21;92.76
82245;BME280;71849;50.096;14.458;2023-07-30T07:51:45;99119.22;;;16.92;93.36
82245;BME280;71849;50.096;14.458;2023-07-30T07:54:10;99054.63;;;22.96;89.04
82245;BME280;71849;50.096;14.458;2023-07-30T07:56:36;99131.59;;;22.51;89.86
82245;BME280;71849;50.096;14.458;2023-07-30T07:59:02;99114.41;;;23.02;83.73
82245;BME280;71849;50.096;14.458;2023-07-30T08:01:27;99093.50;;;19.76;87.13
82245;BME280;71849;50.096;14.458;2023-07-30T08:03:55;99101.34;;;18.79;89.44
82245;BME280;71849;50.096;14.458;2023-07-30T08:06:21;99097.91;;;18.06;90.13
82245;BME280;71849;50.096;14.458;2023-07-30T08:08:46;99107.94;;;20.05;84.26
82245;BME280;71849;50.096;14.458;2023-07-30T08:11:11;99098.41;;;23.47;77.49
82245;BME280;71849;50.096;14.458;2023-07-30T08:13:38;99085.47;;;28.24;68.65
82245;BME280;71849;50.096;14.458;2023-07-30T08:16:04;99097.00;;;19.62;79.37
82245;BME280;71849;50.096;14.458;2023-07-30T08:18:29;99102.28;;;18.12;85.92
82245;BME280;71849;50.096;14.458;2023-07-30T08:20:55;99102.56;;;17.76;85.24
82245;BME280;71849;50.096;14.458;2023-07-30T08:23:38;99115.81;;;17.69;87.63
82245;BME280;71849;50.096;14.458;2023-07-30T08:26:06;99107.28;;;17.71;88.72
82245;BME280;71849;50.096;14.458;2023-07-30T08:28:31;99107.81;;;17.73;86.82
82245;BME280;71849;50.096;14.458;2023-07-30T08:31:15;99107.22;;;17.76;87.18
82245;BME280;71849;50.096;14.458;2023-07-30T08:33:40;99109.41;;;17.79;87.42
82245;BME280;71849;50.096;14.458;2023-07-30T08:36:07;99105.81;;;17.83;87.45
82245;BME280;71849;50.096;14.458;2023-07-30T08:38:42;99105.13;;;17.63;88.30
82245;BME280;71849;50.096;14.458;2023-07-30T08:41:30;99096.66;;;17.49;87.93
82245;BME280;71849;50.096;14.458;2023-07-30T08:43:58;99102.16;;;17.49;87.02
82245;BME280;71849;50.096;14.458;2023-07-30T08:46:24;99098.03;;;17.46;87.41
82245;BME280;71849;50.096;14.458;2023-07-30T08:48:49;99102.13;;;17.54;87.98
82245;BME280;71849;50.096;14.458;2023-07-30T08:51:15;99104.31;;;17.57;86.77
82245;BME280;71849;50.096;14.458;2023-07-30T08:53:42;99101.25;;;17.64;86.63
82245;BME280;71849;50.096;14.458;2023-07-30T08:56:08;99096.88;;;17.63;87.36
82245;BME280;71849;50.096;14.458;2023-07-30T08:58:36;99090.56;;;17.62;86.77
82245;BME280;71849;50.096;14.458;2023-07-30T09:01:08;99098.13;;;17.80;88.25
82245;BME280;71849;50.096;14.458;2023-07-30T09:03:35;99089.69;;;18.00;87.18
82245;BME280;71849;50.096;14.458;2023-07-30T09:10:02;99101.59;;;18.25;84.90
82245;BME280;71849;50.096;14.458;2023-07-30T09:19:08;99097.59;;;18.70;86.15
82245;BME280;71849;50.096;14.458;2023-07-30T09:21:42;99101.19;;;18.70;82.57
82245;BME280;71849;50.096;14.458;2023-07-30T09:28:20;99102.56;;;18.96;83.24
82245;BME280;71849;50.096;14.458;2023-07-30T09:30:49;99106.97;;;19.16;83.40
82245;BME280;71849;50.096;14.458;2023-07-30T09:33:19;99086.59;;;19.36;82.61
82245;BME280;71849;50.096;14.458;2023-07-30T09:39:20;99086.56;;;19.78;81.06
82245;BME280;71849;50.096;14.458;2023-07-30T09:41:47;99095.81;;;19.87;80.18
82245;BME280;71849;50.096;14.458;2023-07-30T09:44:13;99084.38;;;19.94;78.71
82245;BME280;71849;50.096;14.458;2023-07-30T09:46:49;99082.56;;;20.03;78.50
82245;BME280;71849;50.096;14.458;2023-07-30T09:49:15;99075.13;;;20.17;78.16
82245;BME280;71849;50.096;14.458;2023-07-30T09:51:41;99074.28;;;20.35;80.66
82245;BME280;71849;50.096;14.458;2023-07-30T09:54:12;99077.56;;;20.37;78.55
82245;BME280;71849;50.096;14.458;2023-07-30T09:56:39;99076.28;;;20.76;76.65
82245;BME280;71849;50.096;14.458;2023-07-30T09:59:05;99067.47;;;21.01;77.13
82245;BME280;71849;50.096;14.458;2023-07-30T10:01:32;99084.88;;;21.01;77.32
82245;BME280;71849;50.096;14.458;2023-07-30T10:03:59;99085.22;;;21.27;76.54
82245;BME280;71849;50.096;14.458;2023-07-30T10:06:32;99068.16;;;21.47;75.30
82245;BME280;71849;50.096;14.458;2023-07-30T10:08:58;99069.50;;;21.72;73.46
82245;BME280;71849;50.096;14.458;2023-07-30T10:11:25;99076.16;;;21.71;74.90
82245;BME280;71849;50.096;14.458;2023-07-30T10:13:52;99075.75;;;21.91;74.01
82245;BME280;71849;50.096;14.458;2023-07-30T10:16:18;99073.38;;;21.85;70.45
82245;BME280;71849;50.096;14.458;2023-07-30T10:18:44;99077.44;;;22.01;72.06
82245;BME280;71849;50.096;14.458;2023-07-30T10:21:10;99073.53;;;22.24;69.41
82245;BME280;71849;50.096;14.458;2023-07-30T10:23:50;99071.81;;;22.37;69.91
82245;BME280;71849;50.096;14.458;2023-07-30T10:26:30;99072.97;;;22.44;71.03
82245;BME280;71849;50.096;14.458;2023-07-30T10:29:22;99067.88;;;22.38;70.40
82245;BME280;71849;50.096;14.458;2023-07-30T10:31:57;99066.50;;;22.49;70.41
82245;BME280;71849;50.096;14.458;2023-07-30T10:34:27;99066.78;;;22.47;69.27
82245;BME280;71849;50.096;14.458;2023-07-30T10:36:55;99065.44;;;22.14;68.60
82245;BME280;71849;50.096;14.458;2023-07-30T10:39:28;99064.66;;;21.91;69.14
82245;BME280;71849;50.096;14.458;2023-07-30T10:41:58;99062.91;;;21.82;69.60
82245;BME280;71849;50.096;14.458;2023-07-30T10:44:34;99065.97;;;21.94;69.11
82245;BME280;71849;50.096;14.458;2023-07-30T10:47:01;99064.47;;;22.10;66.61
82245;BME280;71849;50.096;14.458;2023-07-30T10:49:28;99049.50;;;22.50;66.02
82245;BME280;71849;50.096;14.458;2023-07-30T10:51:55;99042.69;;;22.56;66.10
82245;BME280;71849;50.096;14.458;2023-07-30T10:54:22;99045.00;;;22.63;66.27
82245;BME280;71849;50.096;14.458;2023-07-30T10:56:48;99047.41;;;22.56;64.90
82245;BME280;71849;50.096;14.458;2023-07-30T10:59:15;99044.66;;;22.86;62.96
82245;BME280;71849;50.096;14.458;2023-07-30T11:01:42;99043.72;;;23.00;63.13
82245;BME280;71849;50.096;14.458;2023-07-30T11:04:18;99045.63;;;22.82;62.03
82245;BME280;71849;50.096;14.458;2023-07-30T11:06:51;99042.31;;;22.80;63.16
82245;BME280;71849;50.096;14.458;2023-07-30T11:11:46;99037.81;;;23.01;60.25
82245;BME280;71849;50.096;14.458;2023-07-30T11:14:19;99029.56;;;23.18;59.91
82245;BME280;71849;50.096;14.458;2023-07-30T11:16:54;99026.50;;;23.54;61.03
82245;BME280;71849;50.096;14.458;2023-07-30T11:19:20;99018.50;;;23.44;59.07
82245;BME280;71849;50.096;14.458;2023-07-30T11:21:48;99030.09;;;23.80;59.57
82245;BME280;71849;50.096;14.458;2023-07-30T11:24:14;99029.25;;;24.06;58.41
82245;BME280;71849;50.096;14.458;2023-07-30T11:26:40;99026.03;;;23.95;56.92
82245;BME280;71849;50.096;14.458;2023-07-30T11:29:18;99024.38;;;23.51;58.52
82245;BME280;71849;50.096;14.458;2023-07-30T11:31:45;99015.25;;;23.42;59.78
82245;BME280;71849;50.096;14.458;2023-07-30T11:34:12;99016.22;;;23.72;59.85
82245;BME280;71849;50.096;14.458;2023-07-30T11:36:38;99014.25;;;23.81;58.33
82245;BME280;71849;50.096;14.458;2023-07-30T11:39:18;99009.16;;;24.00;57.80
82245;BME280;71849;50.096;14.458;2023-07-30T11:41:45;98996.59;;;23.85;57.80
82245;BME280;71849;50.096;14.458;2023-07-30T11:44:31;99006.91;;;23.76;57.81
82245;BME280;71849;50.096;14.458;2023-07-30T11:46:57;99007.50;;;24.08;56.58
82245;BME280;71849;50.096;14.458;2023-07-30T11:49:23;98995.81;;;24.48;56.58
82245;BME280;71849;50.096;14.458;2023-07-30T11:51:48;98991.84;;;24.58;55.80
82245;BME280;71849;50.096;14.458;2023-07-30T11:54:22;98987.59;;;24.90;55.31
82245;BME280;71849;50.096;14.458;2023-07-30T11:56:54;98996.22;;;25.26;54.41
82245;BME280;71849;50.096;14.458;2023-07-30T11:59:21;98983.47;;;25.25;51.04
82245;BME280;71849;50.096;14.458;2023-07-30T12:01:49;98995.53;;;25.29;52.31
82245;BME280;71849;50.096;14.458;2023-07-30T12:04:15;98999.66;;;25.02;51.20
82245;BME280;71849;50.096;14.458;2023-07-30T12:06:58;98994.97;;;24.94;51.44
82245;BME280;71849;50.096;14.458;2023-07-30T12:09:27;98998.88;;;24.56;52.55
82245;BME280;71849;50.096;14.458;2023-07-30T12:11:57;98992.06;;;24.36;52.78
82245;BME280;71849;50.096;14.458;2023-07-30T12:17:12;98994.34;;;24.42;54.69
82245;BME280;71849;50.096;14.458;2023-07-30T12:19:37;98991.50;;;24.60;54.71
82245;BME280;71849;50.096;14.458;2023-07-30T12:22:03;98987.38;;;24.66;54.75
82245;BME280;71849;50.096;14.458;2023-07-30T12:24:29;98997.00;;;24.77;53.88
82245;BME280;71849;50.096;14.458;2023-07-30T12:26:56;98988.28;;;24.78;54.64
82245;BME280;71849;50.096;14.458;2023-07-30T12:29:23;98984.69;;;24.78;54.25
82245;BME280;71849;50.096;14.458;2023-07-30T12:31:49;98994.34;;;24.89;54.16
82245;BME280;71849;50.096;14.458;2023-07-30T12:34:17;98987.59;;;24.90;52.59
82245;BME280;71849;50.096;14.458;2023-07-30T12:36:42;98986.81;;;24.81;52.53
82245;BME280;71849;50.096;14.458;2023-07-30T12:39:08;98989.06;;;24.58;52.60
82245;BME280;71849;50.096;14.458;2023-07-30T12:41:34;98997.66;;;24.74;52.37
82245;BME280;71849;50.096;14.458;2023-07-30T12:44:00;98991.25;;;24.82;51.91
82245;BME280;71849;50.096;14.458;2023-07-30T12:46:25;98996.41;;;25.00;52.16
82245;BME280;71849;50.096;14.458;2023-07-30T12:48:55;98997.53;;;24.99;51.25
82245;BME280;71849;50.096;14.458;2023-07-30T12:51:20;98992.06;;;24.82;52.48
82245;BME280;71849;50.096;14.458;2023-07-30T12:53:46;98991.06;;;24.78;52.80
82245;BME280;71849;50.096;14.458;2023-07-30T12:56:11;99005.66;;;24.75;53.73
82245;BME280;71849;50.096;14.458;2023-07-30T12:58:37;99008.94;;;24.77;54.46
82245;BME280;71849;50.096;14.458;2023-07-30T13:01:04;99012.34;;;24.91;54.32
82245;BME280;71849;50.096;14.458;2023-07-30T13:03:29;99013.13;;;25.21;53.54
82245;BME280;71849;50.096;14.458;2023-07-30T13:05:55;99021.28;;;25.26;53.11
82245;BME280;71849;50.096;14.458;2023-07-30T13:08:20;99011.56;;;25.32;51.71
82245;BME280;71849;50.096;14.458;2023-07-30T13:10:46;99019.75;;;25.37;50.43
82245;BME280;71849;50.096;14.458;2023-07-30T13:13:11;99013.50;;;25.11;49.74